ATENÇÃO
Ajude a manter GRÁTIS o conteúdo do Apolo11. Colabore conosco. Clique Aqui
Meteógrafos Informações Meteorológicas em tempo real
Aeroporto de Congonhas
23-10-2021 04:55 BRT (UTC-3)

Temperatura atual: 15 graus 59 F    Umidade relativa: 87 %
Velocidade do vento: 06 nós 10 Km/h    Direção: 080 graus E
Ajuste do altímetro ..: 1014 HPA
Visibilidade: Ótima    Tempo presente: Parcialmente Nublado

Observação
Poucas nuvens a 700 Pés., Céu nublado a 900 Pés.
Data Hora BRTTempo°CUmidadePressãoVentoVisib.
23/10 - 03:55   Não Disponível 15° 87% 1014 Leste/7 km/h 9999
23/10 - 02:55   Não Disponível 15° 87% 1015 /3 km/h OK
23/10 - 01:55   Não Disponível 15° 87% 1015 Leste/7 km/h 9999
23/10 - 00:55   Não Disponível 15° 82% 1016 Este-sudeste/5 km/h OK
22/10 - 23:55   Céu Limpo 16° 82% 1017 Leste/9 km/h OK
22/10 - 22:55   Céu Limpo 15° 87% 1017 Sudeste/5 km/h OK
22/10 - 21:55   Céu Limpo 15° 87% 1016 Sudeste/9 km/h OK
22/10 - 20:55   Céu Limpo 16° 82% 1016 Sul-sudeste/12 km/h OK
22/10 - 19:55   Céu Limpo 16° 82% 1016 Sul-sudeste/16 km/h OK
22/10 - 18:55   Céu Limpo 18° 68% 1016 Sul-sudeste/19 km/h OK
22/10 - 17:55   Céu Limpo 21° 56% 1015 Sul-sudeste/21 km/h OK
22/10 - 16:55   Céu Limpo 22° 60% 1015 Sul-sudeste/19 km/h OK
22/10 - 15:55   Não Disponível 24° 53% 1015 Sul/19 km/h OK
22/10 - 14:55   Não Disponível 26° 47% 1016 Sul-sudeste/18 km/h OK
22/10 - 13:55   Não Disponível 24° 38% 1016 Oeste-sudoeste/9 km/h OK
22/10 - 12:55   Céu Limpo 23° 46% 1017 Noroeste/9 km/h OK
22/10 - 11:55   Céu Limpo 22° 49% 1018 Nordeste/9 km/h OK
22/10 - 10:55   Poucas nuvens esparsas 21° 52% 1019 Nordeste/7 km/h OK
22/10 - 09:55   Céu Limpo 19° 68% 1019 Nordeste/7 km/h OK
22/10 - 08:55   Céu Limpo 17° 77% 1018 Nordeste/7 km/h OK
22/10 - 07:55   Céu Limpo 16° 82% 1018 Este-nordeste/7 km/h OK
22/10 - 06:55   Céu Limpo 13° 93% 1017 Este-sudeste/1 km/h OK
22/10 - 05:55   Não Disponível 13° 93% 1017 Norte/0 km/h OK
22/10 - 04:55   Não Disponível 14° 87% 1017 /3 km/h OK

Termo de Uso  |   Links Úteis  |   Imprensa  |  Anuncie  |  Fale Conosco  |  Versão Celular  |   Política de Privacidade

Apolo11.com - Todos os direitos reservados - 2000 - 2021

"Governar é roubar, todo mundo sabe disso" - Calígula -